Rossie, New York
Current Conditions -  °F | °C
As of 9:58 AM on Thursday 30 Oct 2014 (Local Time) from KGTB Reporting Station
Overcast Overcast  
Wind Chill: 36°   Ceiling: 2700
Heat Index: 40°   Visibility: 10mi
Dew Point: 32°   Wind: 6mph
Humidity: 73%   Direction: 10°N
Pressure: 30.01"   Gusts: NA
Location:  44.435°N, 75.6656°W
Report Text: KGTB 301358Z AUTO 01005KT 10SM OVC027 05/00 A3001 RMK AO2 OVC V BKN SLP167 T00460002
Loading
Personal Weather Stations






























Interactive Weather Map
Tropical Storm Tracking
New forecast layout! Learn more

10-Day Weather Forecast

Advertisements
Track Severe Weather on mobile